Meteorología y climatología de Navarra
Datos de la estación - Meteo Navarra

Estación de Urbasa GN

Altitud 886 m.


Datos desde el 14/08/2019 hasta el 15/08/2019 en horario solar
Los datos son PROVISIONALES

Anterior Página 1 de 1 Siguiente Descargar: Formato para Excel 2000 o superior   Formato csv   Formato para OpenOffice Calc
Fecha Temperatura Humedad relativa Radiación global Insolación Precipitación Vel. viento 10 m Vel. viento 10 m Dir. viento 10 m
ºC % W/m² s l/m² m/s km/h º
14/08/2019 0:00 6.6 97 0.0 0 0.0 0.0 0.0 0
14/08/2019 0:10 6.3 97 0.0 0 0.0 0.0 0.0 0
14/08/2019 0:20 6.3 97 0.0 0 0.0 0.0 0.1 10
14/08/2019 0:30 6.1 97 0.0 0 0.0 0.0 0.0 0
14/08/2019 0:40 5.9 97 0.0 0 0.0 0.1 0.3 41
14/08/2019 0:50 5.9 97 0.0 0 0.0 0.0 0.0 39
14/08/2019 1:00 5.5 97 0.0 0 0.0 0.0 0.0 0
14/08/2019 1:10 5.5 97 0.0 0 0.0 0.0 0.0 0
14/08/2019 1:20 5.4 97 0.0 0 0.0 0.0 0.0 115
14/08/2019 1:30 5.2 97 0.0 0 0.0 0.0 0.0 0
14/08/2019 1:40 5.4 97 0.0 0 0.0 0.0 0.0 0
14/08/2019 1:50 5.1 97 0.0 0 0.0 0.0 0.0 0
14/08/2019 2:00 5.3 97 0.0 0 0.0 0.0 0.0 0
14/08/2019 2:10 5.2 97 0.0 0 0.0 0.0 0.0 0
14/08/2019 2:20 4.8 97 0.0 0 0.0 0.0 0.1 31
14/08/2019 2:30 4.8 97 0.0 0 0.0 0.0 0.0 0
14/08/2019 2:40 4.7 97 0.0 0 0.0 0.0 0.0 0
14/08/2019 2:50 4.7 97 0.0 0 0.0 0.0 0.0 0
14/08/2019 3:00 4.7 97 0.0 0 0.0 0.0 0.0 0
14/08/2019 3:10 4.4 97 0.0 0 0.0 0.2 0.5 170
14/08/2019 3:20 4.5 98 0.0 0 0.0 0.1 0.5 13
14/08/2019 3:30 4.4 98 0.0 0 0.0 0.1 0.3 187
14/08/2019 3:40 4.2 98 0.0 0 0.0 0.0 0.1 39
14/08/2019 3:50 4.2 98 0.0 0 0.0 0.1 0.4 27
14/08/2019 4:00 4.0 98 0.0 0 0.0 0.2 0.5 10
14/08/2019 4:10 3.9 98 0.0 0 0.0 0.1 0.4 206
14/08/2019 4:20 3.6 97 0.0 0 0.0 0.0 0.0 0
14/08/2019 4:30 3.5 98 0.0 0 0.0 0.0 0.1 206
14/08/2019 4:40 3.5 98 0.0 0 0.0 0.0 0.0 0
14/08/2019 4:50 3.4 98 0.0 0 0.0 0.0 0.0 0
14/08/2019 5:00 3.4 98 0.0 0 0.0 0.0 0.0 0
14/08/2019 5:10 3.3 98 0.0 0 0.0 0.0 0.0 0
14/08/2019 5:20 3.3 98 0.0 0 0.0 0.0 0.0 0
14/08/2019 5:30 3.3 98 0.0 0 0.0 0.2 0.6 2
14/08/2019 5:40 3.3 98 23.0 186 0.0 0.1 0.5 349
14/08/2019 5:50 3.5 98 26.7 44 0.0 0.4 1.5 226
14/08/2019 6:00 3.7 98 63.7 418 0.0 0.1 0.3 88
14/08/2019 6:10 4.7 98 113.5 600 0.0 0.2 0.8 76
14/08/2019 6:20 6.0 98 179.0 600 0.0 0.1 0.2 257
14/08/2019 6:30 5.5 98 239.9 600 0.0 0.2 0.6 153
14/08/2019 6:40 6.1 97 268.1 600 0.0 0.4 1.5 97
14/08/2019 6:50 6.9 95 258.6 600 0.0 0.2 0.8 54
14/08/2019 7:00 7.9 91 237.3 600 0.0 0.1 0.5 146
14/08/2019 7:10 8.8 87 236.8 600 0.0 0.2 0.6 100
14/08/2019 7:20 10.1 79 274.0 600 0.0 0.2 0.5 116
14/08/2019 7:30 11.0 77 330.5 600 0.0 0.1 0.3 104
14/08/2019 7:40 11.9 76 385.4 600 0.0 0.3 1.1 114
14/08/2019 7:50 12.5 77 418.6 600 0.0 0.2 0.8 52
14/08/2019 8:00 13.4 75 437.2 600 0.0 0.2 0.8 124
14/08/2019 8:10 14.7 69 399.5 546 0.0 0.4 1.4 163
14/08/2019 8:20 15.5 64 509.9 600 0.0 0.3 1.0 127
14/08/2019 8:30 16.9 56 537.6 600 0.0 0.4 1.4 166
14/08/2019 8:40 18.1 56 566.9 600 0.0 0.3 1.2 100
14/08/2019 8:50 19.2 52 594.8 600 0.0 0.8 2.9 234
14/08/2019 9:00 18.8 54 623.1 600 0.0 1.3 4.5 259
14/08/2019 9:10 19.1 55 651.3 600 0.0 1.5 5.4 261
14/08/2019 9:20 19.0 55 678.0 600 0.0 1.5 5.3 270
14/08/2019 9:30 19.0 56 699.8 600 0.0 1.3 4.6 305
14/08/2019 9:40 19.4 53 727.2 600 0.0 1.6 5.8 263
14/08/2019 9:50 19.6 52 750.4 600 0.0 1.4 5.2 294
14/08/2019 10:00 19.4 53 771.0 600 0.0 1.9 6.9 347
14/08/2019 10:10 19.3 53 792.7 600 0.0 1.9 6.7 349
14/08/2019 10:20 19.5 53 807.0 600 0.0 2.1 7.5 345
14/08/2019 10:30 19.7 51 826.0 600 0.0 1.8 6.5 330
14/08/2019 10:40 20.0 49 855.0 600 0.0 2.1 7.5 333
14/08/2019 10:50 20.2 47 859.0 600 0.0 1.6 5.8 284
14/08/2019 11:00 20.5 45 872.0 600 0.0 1.2 4.4 301
14/08/2019 11:10 20.9 44 895.0 600 0.0 1.8 6.6 271
14/08/2019 11:20 21.0 45 932.0 600 0.0 1.8 6.5 288
14/08/2019 11:30 21.4 43 1002.0 600 0.0 1.5 5.5 284
14/08/2019 11:40 21.7 44 917.0 600 0.0 1.3 4.5 264
14/08/2019 11:50 21.6 44 908.0 600 0.0 1.6 5.6 289
14/08/2019 12:00 22.0 44 911.0 600 0.0 1.2 4.5 253
14/08/2019 12:10 22.4 44 914.0 600 0.0 1.2 4.2 324
14/08/2019 12:20 22.2 43 912.0 600 0.0 1.4 5.0 310
14/08/2019 12:30 22.0 47 909.0 600 0.0 1.6 5.9 21
14/08/2019 12:40 21.9 50 908.0 600 0.0 2.0 7.2 354
14/08/2019 12:50 22.0 50 905.0 600 0.0 1.9 6.8 12
14/08/2019 13:00 21.7 50 897.0 600 0.0 2.0 7.1 350
14/08/2019 13:10 22.1 49 891.0 600 0.0 1.7 6.0 355
14/08/2019 13:20 21.9 49 881.0 600 0.0 2.3 8.2 22
14/08/2019 13:30 21.9 48 871.0 600 0.0 1.9 7.0 5
14/08/2019 13:40 22.0 49 858.0 600 0.0 1.8 6.4 339
14/08/2019 13:50 22.1 47 845.0 600 0.0 1.6 5.8 354
14/08/2019 14:00 22.4 46 831.0 600 0.0 2.1 7.5 344
14/08/2019 14:10 22.1 45 816.0 600 0.0 2.5 8.9 8
14/08/2019 14:20 22.2 45 798.8 600 0.0 2.3 8.2 5
14/08/2019 14:30 22.2 45 779.2 600 0.0 2.1 7.7 349
14/08/2019 14:40 22.4 46 759.5 600 0.0 2.3 8.2 349
14/08/2019 14:50 22.2 46 737.0 600 0.0 3.0 10.8 4
14/08/2019 15:00 22.0 48 714.2 600 0.0 2.4 8.6 342
14/08/2019 15:10 22.2 51 687.5 600 0.0 2.4 8.6 349
14/08/2019 15:20 21.8 54 661.4 600 0.0 2.3 8.1 5
14/08/2019 15:30 21.9 54 635.3 600 0.0 2.5 9.0 356
14/08/2019 15:40 21.4 55 607.2 600 0.0 2.2 8.0 6
14/08/2019 15:50 21.5 56 579.0 600 0.0 1.4 5.0 18
14/08/2019 16:00 21.4 56 550.4 600 0.0 1.9 6.9 2
14/08/2019 16:10 21.1 55 521.3 600 0.0 2.5 8.9 351
14/08/2019 16:20 21.0 56 490.0 600 0.0 1.8 6.6 3
14/08/2019 16:30 20.9 57 445.0 600 0.0 2.3 8.1 8
14/08/2019 16:40 20.3 59 416.1 600 0.0 2.1 7.5 360
14/08/2019 16:50 20.3 59 398.7 600 0.0 2.1 7.5 346
14/08/2019 17:00 20.2 59 372.1 600 0.0 2.4 8.6 347
14/08/2019 17:10 20.0 59 336.0 600 0.0 2.0 7.3 358
14/08/2019 17:20 20.0 58 293.6 580 0.0 2.1 7.6 342
14/08/2019 17:30 19.8 58 265.4 590 0.0 2.1 7.5 332
14/08/2019 17:40 19.4 58 179.8 356 0.0 1.9 6.7 344
14/08/2019 17:50 18.9 61 91.1 88 0.0 1.8 6.5 348
14/08/2019 18:00 18.5 61 76.8 88 0.0 1.7 6.2 359
14/08/2019 18:10 18.2 62 98.8 284 0.0 1.7 6.3 356
14/08/2019 18:20 18.4 63 125.2 600 0.0 1.4 5.1 328
14/08/2019 18:30 17.9 64 87.7 580 0.0 1.7 6.0 343
14/08/2019 18:40 17.6 66 25.0 0 0.0 1.8 6.3 349
14/08/2019 18:50 17.3 68 13.0 0 0.0 1.5 5.5 351
14/08/2019 19:00 17.0 70 0.0 0 0.0 2.5 8.9 7
14/08/2019 19:10 16.7 73 0.0 0 0.0 2.5 9.0 351
14/08/2019 19:20 16.4 75 0.0 0 0.0 2.0 7.2 341
14/08/2019 19:30 16.2 76 0.0 0 0.0 2.2 8.0 349
14/08/2019 19:40 16.2 77 0.0 0 0.0 2.0 7.0 356
14/08/2019 19:50 16.2 77 0.0 0 0.0 1.8 6.6 16
14/08/2019 20:00 16.2 79 0.0 0 0.0 1.7 6.2 9
14/08/2019 20:10 16.2 80 0.0 0 0.0 2.1 7.6 8
14/08/2019 20:20 16.1 82 0.0 0 0.0 1.5 5.4 7
14/08/2019 20:30 16.0 84 0.0 0 0.0 1.6 5.6 4
14/08/2019 20:40 15.9 85 0.0 0 0.0 1.4 4.9 341
14/08/2019 20:50 15.8 86 0.0 0 0.0 1.6 5.7 344
14/08/2019 21:00 15.8 87 0.0 0 0.0 1.9 6.7 339
14/08/2019 21:10 15.7 88 0.0 0 0.0 1.4 5.1 348
14/08/2019 21:20 15.7 89 0.0 0 0.0 1.3 4.8 324
14/08/2019 21:30 15.6 90 0.0 0 0.0 1.6 5.7 319
14/08/2019 21:40 15.6 90 0.0 0 0.0 1.2 4.3 313
14/08/2019 21:50 15.7 91 0.0 0 0.0 1.8 6.4 350
14/08/2019 22:00 15.7 92 0.0 0 0.0 1.6 5.7 339
14/08/2019 22:10 15.6 94 0.0 0 0.0 1.6 5.7 350
14/08/2019 22:20 15.4 95 0.0 0 0.0 1.5 5.5 344
14/08/2019 22:30 15.4 95 0.0 0 0.0 1.3 4.8 311
14/08/2019 22:40 15.4 95 0.0 0 0.0 1.0 3.6 303
14/08/2019 22:50 15.4 95 0.0 0 0.0 1.0 3.6 323
14/08/2019 23:00 15.5 95 0.0 0 0.0 1.1 3.9 335
14/08/2019 23:10 15.6 95 0.0 0 0.0 1.6 5.8 332
14/08/2019 23:20 15.5 95 0.0 0 0.0 1.9 6.9 334
14/08/2019 23:30 15.6 95 0.0 0 0.0 1.3 4.6 352
14/08/2019 23:40 15.6 95 0.0 0 0.0 1.4 5.0 353
14/08/2019 23:50 15.5 95 0.0 0 0.0 1.2 4.2 346
Anterior Página 1 de 1 Siguiente

NOTA: Tipo de datos según el color:
   - Valores diarios o 10 minutos correctos
   - Valores diarios calculados a partir de un número de datos 10 minutos menor que 144 y mayor que 120, o de un número de datos semihorarios menor que 48 y mayor que 40 (caso de las estaciones de Riegos de Navarra y del MARM)
   - Valores diez minutos estimados


Contacto        Enlaces        Aviso legal